Time;durP1;ratioP1;P1;durP2;ratioP2;P2;SDS_P1;SDS_P2;PMS_P1;PMS_P2;Temp;Humidity;BMP_temperature;BMP_pressure;BME280_temperature;BME280_humidity;BME280_pressure;Samples;Min_cycle;Max_cycle;Signal;HPM_P1;HPM_P2
2023/01/01 00:02:50;;;;;;;12.90;6.47;;;11.70;99.90;;;;;;10047453;29;20198;-85
2023/01/01 00:08:11;;;;;;;7.80;5.43;;;11.70;99.90;;;;;;10059692;29;20200;-86
2023/01/01 00:13:33;;;;;;;9.90;3.83;;;11.80;99.90;;;;;;10047562;29;20199;-86
2023/01/01 00:18:54;;;;;;;5.83;3.20;;;11.80;99.90;;;;;;10046469;29;20277;-85
2023/01/01 00:24:16;;;;;;;5.13;3.70;;;12.00;99.90;;;;;;10061214;29;20212;-85
2023/01/01 00:29:37;;;;;;;6.43;3.80;;;11.90;99.90;;;;;;10046563;29;20210;-84
2023/01/01 00:34:58;;;;;;;6.50;2.80;;;11.90;99.90;;;;;;10045975;29;20236;-77
2023/01/01 00:40:19;;;;;;;7.17;3.40;;;12.00;99.90;;;;;;10044750;29;20245;-84
2023/01/01 00:45:40;;;;;;;6.47;3.37;;;12.00;99.90;;;;;;10047864;29;20217;-85
2023/01/01 00:51:02;;;;;;;8.83;3.37;;;12.00;99.90;;;;;;10045227;29;20198;-77
2023/01/01 00:56:23;;;;;;;8.13;2.97;;;12.00;99.90;;;;;;10044365;29;20240;-84
2023/01/01 01:01:44;;;;;;;8.13;2.70;;;12.00;99.90;;;;;;10044343;29;20213;-77
2023/01/01 01:07:05;;;;;;;4.67;2.70;;;12.00;99.90;;;;;;10030722;29;20454;-77
2023/01/01 01:12:27;;;;;;;5.10;2.47;;;12.00;99.90;;;;;;10046419;29;20228;-78
2023/01/01 01:17:48;;;;;;;9.10;2.40;;;11.90;99.90;;;;;;10044768;29;20256;-78
2023/01/01 01:23:08;;;;;;;13.57;3.30;;;12.00;99.90;;;;;;10059285;29;20207;-76
2023/01/01 01:28:30;;;;;;;5.77;3.03;;;11.90;99.90;;;;;;10044083;29;20210;-77
2023/01/01 01:33:51;;;;;;;5.80;2.43;;;11.90;99.90;;;;;;10043082;29;20211;-76
2023/01/01 01:39:12;;;;;;;4.70;2.80;;;12.00;99.90;;;;;;10020221;29;20210;-85
2023/01/01 01:44:48;;;;;;;5.30;2.50;;;11.90;99.90;;;;;;10020092;29;20261;-76
2023/01/01 01:50:23;;;;;;;4.33;2.43;;;11.90;99.90;;;;;;10005531;29;20209;-76
2023/01/01 01:55:47;;;;;;;5.43;2.53;;;12.00;99.90;;;;;;10017130;29;20420;-86
2023/01/01 02:01:08;;;;;;;5.03;2.80;;;11.90;99.90;;;;;;10005702;29;20324;-76
2023/01/01 02:06:32;;;;;;;3.47;2.20;;;11.80;99.90;;;;;;10014555;29;20228;-78
2023/01/01 02:11:53;;;;;;;5.20;3.00;;;12.00;99.90;;;;;;10043101;29;20202;-78
2023/01/01 02:17:47;;;;;;;3.97;2.90;;;11.90;99.90;;;;;;10042100;29;20282;-78
2023/01/01 02:23:28;;;;;;;3.63;2.43;;;11.90;99.90;;;;;;10055989;29;20253;-76
2023/01/01 02:28:52;;;;;;;5.50;2.70;;;11.90;99.90;;;;;;10036787;29;20219;-85
2023/01/01 02:34:16;;;;;;;6.30;3.43;;;11.90;99.90;;;;;;10038695;29;20284;-85
2023/01/01 02:39:45;;;;;;;6.47;3.03;;;11.80;99.90;;;;;;10026590;29;20206;-85
2023/01/01 02:45:07;;;;;;;5.97;3.07;;;12.00;99.90;;;;;;10039527;29;20218;-86
2023/01/01 02:50:28;;;;;;;6.57;3.20;;;11.90;99.90;;;;;;10046021;29;20292;-84
2023/01/01 02:55:49;;;;;;;8.90;2.90;;;11.80;99.90;;;;;;10040001;29;20414;-85
2023/01/01 03:01:36;;;;;;;8.07;3.30;;;11.90;99.90;;;;;;10039382;29;20208;-85
2023/01/01 03:07:33;;;;;;;6.53;3.40;;;12.00;99.90;;;;;;10040898;29;20210;-85
2023/01/01 03:13:32;;;;;;;8.60;2.60;;;11.90;99.90;;;;;;10056544;29;20497;-83
2023/01/01 03:19:14;;;;;;;5.67;3.07;;;12.00;1.00;;;;;;10041605;29;20232;-79
2023/01/01 03:24:47;;;;;;;8.30;2.87;;;12.00;1.00;;;;;;10041528;29;20514;-75
2023/01/01 03:30:10;;;;;;;7.07;2.53;;;12.20;1.00;;;;;;10027520;29;20233;-86
2023/01/01 03:35:40;;;;;;;9.10;3.27;;;12.10;1.00;;;;;;10046805;29;20253;-78
2023/01/01 03:41:11;;;;;;;6.70;3.70;;;12.10;1.00;;;;;;10048146;29;20252;-84
2023/01/01 03:46:34;;;;;;;7.00;3.50;;;12.20;1.00;;;;;;10048060;29;20206;-76
2023/01/01 03:52:17;;;;;;;5.07;2.97;;;12.20;1.00;;;;;;10046845;29;20211;-77
2023/01/01 03:58:03;;;;;;;5.37;2.90;;;12.20;1.00;;;;;;10046789;29;20249;-78
2023/01/01 04:03:27;;;;;;;6.43;3.10;;;12.30;1.00;;;;;;10046590;29;20208;-80
2023/01/01 04:08:52;;;;;;;5.97;3.60;;;12.40;1.00;;;;;;10032857;29;20202;-77
2023/01/01 04:14:13;;;;;;;5.77;3.37;;;12.40;1.00;;;;;;10048614;29;20217;-82
2023/01/01 04:19:34;;;;;;;8.73;3.60;;;12.40;1.00;;;;;;10060905;29;20230;-76
2023/01/01 04:24:55;;;;;;;6.43;3.93;;;12.40;1.00;;;;;;10045917;29;20200;-85
2023/01/01 04:30:17;;;;;;;6.90;4.23;;;12.40;1.00;;;;;;10046498;29;20201;-76
2023/01/01 04:35:38;;;;;;;11.23;5.73;;;12.40;1.00;;;;;;10031855;29;20255;-85
2023/01/01 04:41:00;;;;;;;8.53;4.90;;;12.40;99.90;;;;;;10045344;29;20249;-86
2023/01/01 04:46:23;;;;;;;10.60;5.80;;;12.40;99.90;;;;;;10031533;29;20231;-85
2023/01/01 04:51:44;;;;;;;10.00;6.10;;;12.40;99.90;;;;;;10047309;29;20204;-85
2023/01/01 04:57:05;;;;;;;11.60;6.83;;;12.40;99.90;;;;;;10045736;29;20278;-86
2023/01/01 05:02:26;;;;;;;17.07;6.73;;;12.30;99.90;;;;;;10031738;29;20236;-84
2023/01/01 05:07:47;;;;;;;16.20;9.50;;;12.40;99.90;;;;;;10045026;29;20210;-76
2023/01/01 05:13:09;;;;;;;15.20;8.67;;;12.40;99.90;;;;;;10044920;29;20189;-85
2023/01/01 05:18:29;;;;;;;14.37;8.60;;;12.50;99.90;;;;;;10044713;29;20260;-76
2023/01/01 05:23:55;;;;;;;17.07;8.90;;;12.50;36.60;;;;;;10044851;29;20195;-85
2023/01/01 05:29:18;;;;;;;17.83;8.67;;;12.40;99.90;;;;;;10044192;29;20201;-85
2023/01/01 05:34:39;;;;;;;12.67;7.97;;;12.40;99.90;;;;;;10042942;29;20293;-86
2023/01/01 05:40:00;;;;;;;15.23;8.47;;;12.40;99.90;;;;;;10043215;29;20215;-85
2023/01/01 05:45:21;;;;;;;21.73;8.43;;;12.50;2.80;;;;;;10044104;29;20206;-83
2023/01/01 05:50:42;;;;;;;20.23;8.70;;;12.60;1.00;;;;;;10057714;29;20203;-85
2023/01/01 05:56:06;;;;;;;14.70;7.33;;;12.60;1.00;;;;;;10043733;29;20227;-86
2023/01/01 06:01:29;;;;;;;14.77;8.17;;;12.70;99.90;;;;;;10043561;29;20202;-85
2023/01/01 06:06:50;;;;;;;17.37;7.07;;;12.70;99.90;;;;;;10042857;29;20206;-80
2023/01/01 06:12:12;;;;;;;15.40;6.77;;;12.50;1.00;;;;;;10042193;29;20200;-79
2023/01/01 06:17:33;;;;;;;14.17;6.93;;;12.50;1.00;;;;;;10042600;29;20223;-85
2023/01/01 06:22:54;;;;;;;14.30;6.43;;;12.70;99.90;;;;;;10041627;29;20449;-76
2023/01/01 06:28:15;;;;;;;12.77;5.37;;;12.60;99.90;;;;;;10041775;29;20211;-77
2023/01/01 06:33:38;;;;;;;17.07;6.17;;;12.60;99.90;;;;;;10041080;29;20211;-78
2023/01/01 06:39:00;;;;;;;15.57;6.77;;;12.60;99.90;;;;;;10042168;29;20192;-77
2023/01/01 06:44:21;;;;;;;13.33;5.47;;;12.70;18.70;;;;;;10042126;29;20251;-80
2023/01/01 06:49:42;;;;;;;11.63;4.83;;;12.60;94.60;;;;;;10056626;29;20231;-85
2023/01/01 06:55:04;;;;;;;14.93;4.73;;;12.60;1.00;;;;;;10042526;29;20214;-85
2023/01/01 07:00:25;;;;;;;8.87;4.73;;;12.70;99.90;;;;;;10054274;29;20198;-85
2023/01/01 07:05:46;;;;;;;10.63;4.90;;;12.60;1.00;;;;;;10058381;29;20226;-84
2023/01/01 07:11:07;;;;;;;10.23;4.30;;;12.60;99.90;;;;;;10063737;29;20207;-84
2023/01/01 07:16:28;;;;;;;10.70;5.97;;;12.80;99.90;;;;;;10050384;29;20210;-82
2023/01/01 07:21:53;;;;;;;13.90;4.77;;;12.70;1.00;;;;;;10035110;29;20207;-84
2023/01/01 07:27:15;;;;;;;12.10;4.63;;;12.70;1.00;;;;;;10050600;29;20470;-85
2023/01/01 07:32:36;;;;;;;8.53;4.13;;;12.50;1.00;;;;;;10063037;29;20407;-85
2023/01/01 07:37:57;;;;;;;10.77;4.47;;;12.60;1.00;;;;;;10060602;29;20244;-85
2023/01/01 07:43:18;;;;;;;11.27;5.27;;;12.70;99.90;;;;;;10048270;29;20311;-85
2023/01/01 07:48:39;;;;;;;24.70;10.20;;;12.60;1.00;;;;;;10048443;29;20260;-83
2023/01/01 07:54:00;;;;;;;17.23;7.13;;;12.60;1.00;;;;;;10047822;29;20198;-85
2023/01/01 07:59:25;;;;;;;31.67;11.20;;;12.60;1.00;;;;;;10047196;29;20273;-85
2023/01/01 08:04:46;;;;;;;19.50;8.27;;;12.40;99.90;;;;;;10033267;29;20228;-85
2023/01/01 08:10:08;;;;;;;12.03;5.77;;;12.50;99.90;;;;;;10047457;29;20225;-85
2023/01/01 08:15:30;;;;;;;10.80;4.67;;;12.50;99.90;;;;;;10046816;29;20200;-85
2023/01/01 08:20:50;;;;;;;8.77;4.60;;;12.60;1.00;;;;;;10060422;29;20217;-85
2023/01/01 08:26:16;;;;;;;16.43;5.83;;;12.50;99.90;;;;;;10046824;29;20224;-83
2023/01/01 08:31:37;;;;;;;19.87;8.67;;;12.60;1.00;;;;;;10046662;29;20562;-86
2023/01/01 08:36:58;;;;;;;19.00;9.87;;;12.60;1.00;;;;;;10044812;29;20208;-84
2023/01/01 08:42:19;;;;;;;15.13;6.67;;;12.70;1.00;;;;;;10045166;29;20556;-84
2023/01/01 08:47:42;;;;;;;11.30;5.40;;;12.70;1.00;;;;;;10032306;29;20235;-85
2023/01/01 08:53:03;;;;;;;12.13;5.23;;;12.60;38.70;;;;;;10046247;29;20253;-84
2023/01/01 08:58:25;;;;;;;15.90;5.30;;;12.50;99.90;;;;;;10044618;29;20562;-85
2023/01/01 09:03:46;;;;;;;14.53;6.33;;;12.70;1.00;;;;;;10045186;29;20203;-85
2023/01/01 09:09:07;;;;;;;10.53;5.03;;;12.80;1.00;;;;;;10044766;29;20227;-81
2023/01/01 09:14:28;;;;;;;17.60;5.20;;;12.80;1.00;;;;;;10045059;29;20222;-76
2023/01/01 09:19:49;;;;;;;18.90;6.40;;;12.90;1.00;;;;;;10056816;29;20192;-84
2023/01/01 09:25:10;;;;;;;11.30;5.67;;;13.00;99.90;;;;;;10030598;29;20283;-83
2023/01/01 09:30:32;;;;;;;11.70;5.67;;;13.10;1.00;;;;;;10058570;29;20268;-76
2023/01/01 09:35:53;;;;;;;11.20;4.83;;;13.10;99.90;;;;;;10058085;29;20212;-85
2023/01/01 09:41:33;;;;;;;7.27;4.03;;;13.20;1.00;;;;;;10043278;29;20239;-85
2023/01/01 09:46:59;;;;;;;11.60;5.07;;;13.30;1.00;;;;;;10043013;29;20238;-85
2023/01/01 09:52:20;;;;;;;15.70;5.60;;;13.40;99.90;;;;;;10042840;29;20204;-85
2023/01/01 09:57:41;;;;;;;11.27;4.90;;;13.50;1.00;;;;;;10042893;29;20212;-85
2023/01/01 10:03:17;;;;;;;11.50;4.70;;;13.60;99.90;;;;;;10042308;29;20256;-84
2023/01/01 10:08:44;;;;;;;13.13;5.30;;;13.70;99.90;;;;;;10042603;29;20569;-86
2023/01/01 10:14:24;;;;;;;12.50;5.93;;;13.80;1.00;;;;;;10042747;29;20199;-85
2023/01/01 10:19:50;;;;;;;12.47;4.80;;;13.90;99.90;;;;;;10028892;29;20224;-77
2023/01/01 10:25:21;;;;;;;14.57;4.40;;;13.90;99.90;;;;;;10057202;29;20209;-84
2023/01/01 10:30:43;;;;;;;10.20;4.27;;;13.90;99.90;;;;;;10044370;29;20210;-85
2023/01/01 10:36:04;;;;;;;8.83;4.80;;;14.00;99.90;;;;;;10042038;29;20236;-78
2023/01/01 10:41:25;;;;;;;12.93;4.33;;;14.10;1.00;;;;;;10042385;29;20246;-79
2023/01/01 10:46:53;;;;;;;14.73;5.90;;;14.20;1.00;;;;;;10042555;29;20226;-77
2023/01/01 10:52:15;;;;;;;8.43;4.63;;;14.20;1.00;;;;;;10042594;29;20261;-85
2023/01/01 10:57:39;;;;;;;15.00;4.60;;;14.20;1.00;;;;;;10042750;29;20250;-81
2023/01/01 11:03:12;;;;;;;11.70;4.00;;;14.20;1.00;;;;;;10042141;29;20385;-84
2023/01/01 11:08:36;;;;;;;9.23;3.93;;;14.20;1.00;;;;;;10040956;29;20237;-84
2023/01/01 11:14:07;;;;;;;9.50;3.40;;;14.20;1.00;;;;;;10027908;29;20280;-81
2023/01/01 11:19:35;;;;;;;7.00;2.87;;;14.30;1.00;;;;;;10043135;29;20220;-85
2023/01/01 11:25:01;;;;;;;9.93;3.10;;;14.40;1.00;;;;;;10040892;29;20223;-82
2023/01/01 11:30:28;;;;;;;7.87;3.43;;;14.40;1.00;;;;;;10042587;29;20209;-78
2023/01/01 11:35:53;;;;;;;13.87;8.37;;;14.40;1.00;;;;;;10041996;29;20250;-85
2023/01/01 11:41:14;;;;;;;9.80;3.80;;;14.20;1.00;;;;;;10053486;29;20327;-84
2023/01/01 11:46:37;;;;;;;9.03;3.10;;;14.20;1.00;;;;;;10040760;29;20235;-85
2023/01/01 11:51:58;;;;;;;7.63;2.63;;;14.20;1.00;;;;;;10042528;29;20202;-85
2023/01/01 11:57:24;;;;;;;6.90;2.50;;;14.20;1.00;;;;;;10033757;29;20231;-77
2023/01/01 12:03:00;;;;;;;6.07;2.73;;;14.30;1.00;;;;;;10046661;29;20207;-76
2023/01/01 12:08:57;;;;;;;8.47;2.80;;;14.30;1.00;;;;;;10048636;29;20240;-85
2023/01/01 12:14:21;;;;;;;10.03;2.87;;;14.40;1.00;;;;;;10022719;29;20398;-82
2023/01/01 12:20:05;;;;;;;5.70;2.63;;;14.40;99.90;;;;;;10046299;29;20213;-85
2023/01/01 12:25:39;;;;;;;10.13;3.00;;;14.30;1.00;;;;;;10046393;29;20208;-82
2023/01/01 12:31:25;;;;;;;14.03;3.43;;;14.10;1.00;;;;;;10045826;29;20410;-85
2023/01/01 12:37:01;;;;;;;17.73;2.90;;;14.00;1.00;;;;;;10042693;29;20204;-78
2023/01/01 12:42:30;;;;;;;8.77;2.70;;;14.00;1.00;;;;;;10032048;29;20248;-84
2023/01/01 12:48:29;;;;;;;5.90;2.60;;;14.00;1.00;;;;;;10044682;29;20233;-77
2023/01/01 12:54:28;;;;;;;6.77;2.77;;;14.10;1.00;;;;;;10031934;29;20212;-83
2023/01/01 12:59:51;;;;;;;12.03;3.10;;;14.10;1.00;;;;;;10031695;29;20510;-83
2023/01/01 13:05:22;;;;;;;6.37;3.13;;;13.90;1.00;;;;;;10044447;29;20198;-83
2023/01/01 13:10:46;;;;;;;7.00;3.17;;;13.90;1.00;;;;;;10016026;29;20229;-77
2023/01/01 13:16:29;;;;;;;5.57;2.50;;;13.90;1.00;;;;;;10018828;29;20515;-78
2023/01/01 13:21:50;;;;;;;3.67;2.10;;;13.80;1.00;;;;;;10021253;29;20496;-79
2023/01/01 13:27:12;;;;;;;7.47;2.90;;;13.70;1.00;;;;;;10020957;29;20293;-84
2023/01/01 13:33:11;;;;;;;3.80;2.30;;;13.60;1.00;;;;;;10013315;29;20200;-82
2023/01/01 13:38:53;;;;;;;9.83;3.00;;;13.60;1.00;;;;;;10043110;29;20218;-82
2023/01/01 13:44:20;;;;;;;8.07;3.47;;;13.50;1.00;;;;;;10043774;29;20293;-83
2023/01/01 13:50:04;;;;;;;6.90;2.63;;;13.40;58.20;;;;;;10043823;29;20231;-83
2023/01/01 13:55:37;;;;;;;10.07;3.33;;;13.30;99.90;;;;;;10055939;29;20200;-83
2023/01/01 14:01:29;;;;;;;6.77;2.67;;;13.20;99.90;;;;;;10043442;29;20213;-84
2023/01/01 14:06:53;;;;;;;8.07;3.20;;;13.10;1.00;;;;;;10042909;29;20227;-82
2023/01/01 14:12:20;;;;;;;5.53;2.67;;;13.10;1.00;;;;;;10042821;29;20200;-77
2023/01/01 14:17:42;;;;;;;8.37;2.97;;;13.00;1.00;;;;;;10056006;29;20205;-77
2023/01/01 14:23:10;;;;;;;6.20;3.07;;;13.00;1.00;;;;;;10041709;29;20212;-84
2023/01/01 14:28:34;;;;;;;9.63;2.80;;;13.00;1.00;;;;;;10041736;29;20232;-84
2023/01/01 14:33:55;;;;;;;9.60;2.73;;;12.90;1.00;;;;;;10056770;29;20498;-81
2023/01/01 14:39:26;;;;;;;11.73;3.17;;;12.80;99.90;;;;;;10054823;29;20202;-79
2023/01/01 14:44:49;;;;;;;5.07;2.43;;;12.70;99.90;;;;;;10042016;29;20233;-78
2023/01/01 14:50:24;;;;;;;6.63;3.00;;;12.70;99.90;;;;;;10040985;29;20230;-76
2023/01/01 14:55:47;;;;;;;10.43;2.83;;;12.60;99.90;;;;;;10040611;29;20227;-76
2023/01/01 15:01:20;;;;;;;5.43;2.90;;;12.60;99.90;;;;;;10041583;29;20402;-76
2023/01/01 15:06:41;;;;;;;7.30;3.00;;;12.60;90.90;;;;;;10040523;29;20257;-84
2023/01/01 15:12:02;;;;;;;7.70;3.83;;;12.50;99.90;;;;;;10040847;29;20224;-83
2023/01/01 15:17:25;;;;;;;8.20;2.83;;;12.50;99.90;;;;;;10056162;29;20215;-78
2023/01/01 15:22:47;;;;;;;4.83;2.60;;;12.40;99.90;;;;;;10027430;29;20210;-78
2023/01/01 15:28:19;;;;;;;11.07;3.43;;;12.30;1.00;;;;;;10029718;29;20249;-83
2023/01/01 15:33:46;;;;;;;9.90;3.23;;;12.30;1.00;;;;;;10047303;29;20388;-81
2023/01/01 15:39:11;;;;;;;7.80;2.80;;;12.20;46.90;;;;;;10060686;29;20224;-84
2023/01/01 15:44:35;;;;;;;11.53;3.40;;;12.00;1.00;;;;;;10048352;29;20226;-83
2023/01/01 15:50:30;;;;;;;5.43;3.43;;;12.00;1.00;;;;;;10046937;29;20570;-84
2023/01/01 15:55:58;;;;;;;11.10;3.87;;;11.80;99.90;;;;;;10047323;29;20204;-77
2023/01/01 16:01:26;;;;;;;6.20;3.73;;;11.80;1.00;;;;;;10059575;29;20501;-81
2023/01/01 16:06:51;;;;;;;11.57;6.43;;;11.60;1.00;;;;;;10059908;29;20219;-83
2023/01/01 16:12:11;;;;;;;6.37;3.67;;;11.50;99.90;;;;;;10047621;29;20203;-84
2023/01/01 16:17:33;;;;;;;9.10;4.07;;;11.50;99.90;;;;;;10046135;29;20206;-83
2023/01/01 16:22:54;;;;;;;12.07;5.60;;;11.40;94.90;;;;;;10046806;29;20200;-80
2023/01/01 16:28:16;;;;;;;11.60;4.77;;;11.30;99.90;;;;;;10045247;29;20592;-77
2023/01/01 16:33:37;;;;;;;13.67;6.60;;;11.30;99.90;;;;;;10046055;29;20210;-79
2023/01/01 16:38:59;;;;;;;8.73;5.30;;;11.20;1.00;;;;;;10059317;29;20210;-77
2023/01/01 16:44:20;;;;;;;10.10;4.20;;;11.10;99.90;;;;;;10045735;29;20252;-82
2023/01/01 16:49:41;;;;;;;8.20;4.40;;;11.00;1.00;;;;;;10057639;29;20269;-76
2023/01/01 16:55:03;;;;;;;8.33;4.63;;;11.00;1.00;;;;;;10046810;29;20336;-79
2023/01/01 17:00:24;;;;;;;10.13;3.70;;;11.00;1.00;;;;;;10057461;29;20204;-76
2023/01/01 17:05:45;;;;;;;10.30;4.70;;;11.00;99.90;;;;;;10045250;29;20201;-83
2023/01/01 17:11:13;;;;;;;8.03;4.77;;;10.90;1.00;;;;;;10044989;29;20296;-78
2023/01/01 17:16:35;;;;;;;8.67;4.40;;;10.80;47.90;;;;;;10043979;29;20430;-77
2023/01/01 17:21:59;;;;;;;19.00;5.03;;;10.80;99.90;;;;;;10056670;29;20273;-82
2023/01/01 17:27:21;;;;;;;11.83;4.03;;;10.70;99.90;;;;;;10056753;29;20221;-80
2023/01/01 17:32:42;;;;;;;8.07;4.67;;;10.60;1.00;;;;;;10043936;29;20203;-77
2023/01/01 17:38:03;;;;;;;8.83;3.93;;;10.50;1.00;;;;;;10044003;29;20212;-79
2023/01/01 17:43:24;;;;;;;10.83;4.10;;;10.60;1.00;;;;;;10042612;29;20243;-83
2023/01/01 17:48:45;;;;;;;7.70;4.00;;;10.50;1.00;;;;;;10043803;29;20226;-77
2023/01/01 17:54:11;;;;;;;8.10;4.27;;;10.40;1.00;;;;;;10042515;29;20221;-81
2023/01/01 17:59:32;;;;;;;5.47;2.83;;;10.30;1.00;;;;;;10043495;29;20560;-84
2023/01/01 18:04:53;;;;;;;5.87;4.13;;;10.30;1.00;;;;;;10041955;29;20400;-82
2023/01/01 18:10:15;;;;;;;9.07;4.43;;;10.30;9.10;;;;;;10042476;29;20261;-83
2023/01/01 18:15:37;;;;;;;11.17;5.67;;;10.20;55.90;;;;;;10028907;29;20206;-78
2023/01/01 18:21:03;;;;;;;14.17;4.87;;;10.20;55.10;;;;;;10056704;29;20259;-83
2023/01/01 18:26:27;;;;;;;12.83;6.73;;;10.10;99.90;;;;;;10044179;29;20208;-84
2023/01/01 18:31:50;;;;;;;41.27;15.50;;;10.10;99.90;;;;;;10042272;29;20204;-84
2023/01/01 18:37:11;;;;;;;46.70;16.87;;;10.00;99.90;;;;;;10041607;29;20370;-83
2023/01/01 18:43:08;;;;;;;60.87;24.50;;;10.00;99.90;;;;;;10041459;29;20240;-83
2023/01/01 18:48:29;;;;;;;30.73;12.73;;;10.00;99.90;;;;;;10115288;29;20258;-79
2023/01/01 18:53:54;;;;;;;14.57;7.27;;;10.00;99.90;;;;;;10115020;29;20207;-77
2023/01/01 18:59:23;;;;;;;11.40;4.93;;;9.90;99.90;;;;;;10115075;29;20216;-78
2023/01/01 19:04:44;;;;;;;9.83;5.00;;;9.90;99.90;;;;;;10120400;29;20212;-80
2023/01/01 19:10:14;;;;;;;18.10;6.40;;;9.90;1.00;;;;;;10099713;29;20252;-77
2023/01/01 19:15:35;;;;;;;22.20;7.83;;;9.90;99.90;;;;;;10084166;29;20224;-78
2023/01/01 19:21:11;;;;;;;18.67;7.60;;;10.00;99.90;;;;;;10098978;29;20466;-83
2023/01/01 19:26:38;;;;;;;24.20;9.30;;;10.00;1.00;;;;;;10024979;29;20262;-80
2023/01/01 19:32:00;;;;;;;25.97;11.67;;;9.90;1.00;;;;;;10014288;29;20285;-79
2023/01/01 19:37:21;;;;;;;27.67;12.30;;;9.90;1.00;;;;;;10060324;29;20266;-84
2023/01/01 19:42:42;;;;;;;27.13;13.87;;;9.80;1.00;;;;;;10047562;29;20416;-80
2023/01/01 19:48:03;;;;;;;30.33;13.37;;;9.80;1.00;;;;;;10033820;29;20243;-83
2023/01/01 19:53:25;;;;;;;12.77;6.30;;;9.80;1.00;;;;;;10033967;29;20496;-83
2023/01/01 19:58:46;;;;;;;17.47;8.47;;;9.70;1.00;;;;;;10047055;29;20207;-84
2023/01/01 20:04:08;;;;;;;14.20;6.60;;;9.70;1.00;;;;;;10046569;29;20192;-83
2023/01/01 20:09:29;;;;;;;13.83;7.10;;;9.70;1.00;;;;;;10059508;29;20233;-84
2023/01/01 20:14:52;;;;;;;9.57;4.53;;;9.70;1.00;;;;;;10046235;29;20205;-84
2023/01/01 20:20:13;;;;;;;7.93;4.97;;;9.70;1.00;;;;;;10047110;29;20229;-84
2023/01/01 20:25:34;;;;;;;10.33;6.10;;;9.70;1.00;;;;;;10046973;29;20204;-83
2023/01/01 20:30:55;;;;;;;17.80;8.97;;;9.60;1.00;;;;;;10045523;29;20236;-83
2023/01/01 20:41:56;;;;;;;12.97;5.60;;;9.60;1.00;;;;;;10046436;29;20289;-80
2023/01/01 20:47:17;;;;;;;14.60;5.23;;;9.60;1.00;;;;;;10058126;29;20225;-81
2023/01/01 20:52:38;;;;;;;9.83;5.67;;;9.60;1.00;;;;;;10044791;29;20216;-81
2023/01/01 20:58:00;;;;;;;11.60;5.90;;;9.50;1.00;;;;;;10045958;29;20201;-84
2023/01/01 21:03:21;;;;;;;12.97;6.73;;;9.60;1.00;;;;;;10044482;29;20206;-83
2023/01/01 21:08:45;;;;;;;12.87;7.03;;;9.60;1.00;;;;;;10045184;29;20539;-84
2023/01/01 21:14:07;;;;;;;15.73;7.63;;;9.60;1.00;;;;;;10059188;29;20235;-83
2023/01/01 21:19:28;;;;;;;11.27;6.17;;;9.50;1.00;;;;;;10044960;29;20206;-83
2023/01/01 21:24:49;;;;;;;9.37;5.67;;;9.50;1.00;;;;;;10044465;29;20197;-84
2023/01/01 21:30:14;;;;;;;14.90;6.43;;;9.40;1.00;;;;;;10058850;29;20265;-83
2023/01/01 21:35:36;;;;;;;14.03;6.43;;;9.40;1.00;;;;;;10030225;29;20208;-84
2023/01/01 21:40:59;;;;;;;11.43;6.30;;;9.40;1.00;;;;;;10030330;29;20243;-84
2023/01/01 21:46:33;;;;;;;19.77;8.97;;;9.40;1.00;;;;;;10042873;29;20207;-84
2023/01/01 21:51:58;;;;;;;14.77;8.07;;;9.40;1.00;;;;;;10042782;29;20241;-85
2023/01/01 21:57:23;;;;;;;12.30;6.70;;;9.30;1.00;;;;;;10043635;29;20204;-84
2023/01/01 22:02:46;;;;;;;14.73;6.70;;;9.20;1.00;;;;;;10043425;29;20209;-81
2023/01/01 22:08:23;;;;;;;13.83;6.10;;;9.30;1.00;;;;;;10055444;29;20679;-84
2023/01/01 22:13:44;;;;;;;11.47;5.83;;;9.20;1.00;;;;;;10044308;29;20287;-84
2023/01/01 22:19:20;;;;;;;14.23;7.17;;;9.20;1.00;;;;;;10029178;29;20264;-84
2023/01/01 22:24:51;;;;;;;15.27;6.43;;;9.20;1.00;;;;;;10057205;29;20206;-84
2023/01/01 22:30:18;;;;;;;10.37;5.97;;;9.20;1.00;;;;;;10054497;29;20292;-83
2023/01/01 22:35:40;;;;;;;12.10;5.73;;;9.10;1.00;;;;;;10053850;29;20257;-82
2023/01/01 22:41:01;;;;;;;14.30;6.67;;;9.10;1.00;;;;;;10041915;29;20304;-82
2023/01/01 22:46:35;;;;;;;12.87;5.90;;;9.20;1.00;;;;;;10042260;29;20390;-84
2023/01/01 22:51:57;;;;;;;11.40;6.03;;;9.20;1.00;;;;;;10042405;29;20400;-83
2023/01/01 22:57:18;;;;;;;13.90;7.37;;;9.20;1.00;;;;;;10042598;29;20253;-83
2023/01/01 23:02:39;;;;;;;10.53;5.67;;;9.20;1.00;;;;;;10042244;29;20269;-82
2023/01/01 23:08:00;;;;;;;6.23;4.63;;;9.20;1.00;;;;;;10041759;29;20225;-82
2023/01/01 23:19:01;;;;;;;11.23;6.10;;;9.10;1.00;;;;;;10041713;29;20229;-83
2023/01/01 23:24:23;;;;;;;13.87;7.07;;;9.20;1.00;;;;;;10053565;29;20204;-83
2023/01/01 23:29:46;;;;;;;12.77;7.80;;;9.10;1.00;;;;;;10041524;29;20557;-84
2023/01/01 23:35:08;;;;;;;14.23;6.53;;;9.10;1.00;;;;;;10041287;29;20396;-83
2023/01/01 23:40:29;;;;;;;13.53;6.83;;;9.10;1.00;;;;;;10040133;29;20249;-83
2023/01/01 23:45:51;;;;;;;11.73;6.53;;;9.10;1.00;;;;;;10041444;29;20459;-81
2023/01/01 23:51:12;;;;;;;13.87;7.23;;;9.10;1.00;;;;;;10046518;29;20227;-82
2023/01/01 23:56:34;;;;;;;16.77;8.13;;;9.10;1.00;;;;;;10046709;29;20208;-84
